sensor_id;sensor_type;location;lat;lon;timestamp;P1;durP1;ratioP1;P2;durP2;ratioP2
10295;SDS011;5193;51.032;6.356;2022-10-16T00:01:22;1.37;;;1.03;;
10295;SDS011;5193;51.032;6.356;2022-10-16T00:03:50;3.90;;;1.10;;
10295;SDS011;5193;51.032;6.356;2022-10-16T00:06:16;2.43;;;0.90;;
10295;SDS011;5193;51.032;6.356;2022-10-16T00:08:43;3.33;;;1.10;;
10295;SDS011;5193;51.032;6.356;2022-10-16T00:11:11;5.73;;;1.30;;
10295;SDS011;5193;51.032;6.356;2022-10-16T00:13:42;4.13;;;1.10;;
10295;SDS011;5193;51.032;6.356;2022-10-16T00:16:09;2.13;;;0.93;;
10295;SDS011;5193;51.032;6.356;2022-10-16T00:18:36;4.53;;;1.00;;
10295;SDS011;5193;51.032;6.356;2022-10-16T00:21:05;1.93;;;1.40;;
10295;SDS011;5193;51.032;6.356;2022-10-16T00:23:42;1.20;;;1.10;;
10295;SDS011;5193;51.032;6.356;2022-10-16T00:26:09;2.17;;;1.00;;
10295;SDS011;5193;51.032;6.356;2022-10-16T00:28:37;2.77;;;1.13;;
10295;SDS011;5193;51.032;6.356;2022-10-16T00:31:07;1.27;;;0.90;;
10295;SDS011;5193;51.032;6.356;2022-10-16T00:33:35;1.37;;;0.90;;
10295;SDS011;5193;51.032;6.356;2022-10-16T00:36:01;3.53;;;1.33;;
10295;SDS011;5193;51.032;6.356;2022-10-16T00:38:28;2.93;;;1.20;;
10295;SDS011;5193;51.032;6.356;2022-10-16T00:40:54;2.83;;;1.00;;
10295;SDS011;5193;51.032;6.356;2022-10-16T00:51:23;4.37;;;1.30;;
10295;SDS011;5193;51.032;6.356;2022-10-16T00:53:55;1.80;;;1.03;;
10295;SDS011;5193;51.032;6.356;2022-10-16T00:56:21;2.33;;;1.10;;
10295;SDS011;5193;51.032;6.356;2022-10-16T00:58:46;2.37;;;1.17;;
10295;SDS011;5193;51.032;6.356;2022-10-16T01:01:12;1.33;;;1.07;;
10295;SDS011;5193;51.032;6.356;2022-10-16T01:03:38;3.07;;;1.10;;
10295;SDS011;5193;51.032;6.356;2022-10-16T01:08:56;3.43;;;1.10;;
10295;SDS011;5193;51.032;6.356;2022-10-16T01:11:34;1.30;;;0.97;;
10295;SDS011;5193;51.032;6.356;2022-10-16T01:14:21;2.47;;;0.87;;
10295;SDS011;5193;51.032;6.356;2022-10-16T01:17:04;2.40;;;1.30;;
10295;SDS011;5193;51.032;6.356;2022-10-16T01:22:19;1.27;;;1.00;;
10295;SDS011;5193;51.032;6.356;2022-10-16T01:24:48;1.17;;;1.03;;
10295;SDS011;5193;51.032;6.356;2022-10-16T01:27:20;2.17;;;1.23;;
10295;SDS011;5193;51.032;6.356;2022-10-16T01:30:04;2.07;;;1.00;;
10295;SDS011;5193;51.032;6.356;2022-10-16T01:32:39;1.67;;;1.30;;
10295;SDS011;5193;51.032;6.356;2022-10-16T01:35:29;1.47;;;1.30;;
10295;SDS011;5193;51.032;6.356;2022-10-16T01:38:07;2.37;;;0.90;;
10295;SDS011;5193;51.032;6.356;2022-10-16T01:40:49;1.37;;;1.10;;
10295;SDS011;5193;51.032;6.356;2022-10-16T01:43:22;3.73;;;1.10;;
10295;SDS011;5193;51.032;6.356;2022-10-16T01:45:52;3.57;;;1.20;;
10295;SDS011;5193;51.032;6.356;2022-10-16T01:48:18;1.93;;;1.00;;
10295;SDS011;5193;51.032;6.356;2022-10-16T01:50:49;1.77;;;1.30;;
10295;SDS011;5193;51.032;6.356;2022-10-16T01:53:21;1.50;;;1.20;;
10295;SDS011;5193;51.032;6.356;2022-10-16T01:55:48;2.07;;;1.40;;
10295;SDS011;5193;51.032;6.356;2022-10-16T01:58:17;2.50;;;1.50;;
10295;SDS011;5193;51.032;6.356;2022-10-16T02:00:43;2.97;;;1.40;;
10295;SDS011;5193;51.032;6.356;2022-10-16T02:03:12;2.73;;;0.90;;
10295;SDS011;5193;51.032;6.356;2022-10-16T02:08:16;2.00;;;1.03;;
10295;SDS011;5193;51.032;6.356;2022-10-16T02:10:42;1.93;;;0.90;;
10295;SDS011;5193;51.032;6.356;2022-10-16T02:16:12;1.70;;;1.00;;
10295;SDS011;5193;51.032;6.356;2022-10-16T02:18:39;1.33;;;0.93;;
10295;SDS011;5193;51.032;6.356;2022-10-16T02:29:22;2.97;;;0.90;;
10295;SDS011;5193;51.032;6.356;2022-10-16T02:31:52;1.20;;;0.80;;
10295;SDS011;5193;51.032;6.356;2022-10-16T02:34:22;1.93;;;0.80;;
10295;SDS011;5193;51.032;6.356;2022-10-16T02:36:50;0.80;;;0.70;;
10295;SDS011;5193;51.032;6.356;2022-10-16T02:39:17;0.60;;;0.60;;
10295;SDS011;5193;51.032;6.356;2022-10-16T02:41:44;1.27;;;0.70;;
10295;SDS011;5193;51.032;6.356;2022-10-16T02:44:10;2.83;;;0.80;;
10295;SDS011;5193;51.032;6.356;2022-10-16T02:46:35;1.10;;;0.80;;
10295;SDS011;5193;51.032;6.356;2022-10-16T02:49:01;2.70;;;0.70;;
10295;SDS011;5193;51.032;6.356;2022-10-16T02:51:27;3.73;;;1.00;;
10295;SDS011;5193;51.032;6.356;2022-10-16T02:53:52;2.37;;;0.60;;
10295;SDS011;5193;51.032;6.356;2022-10-16T02:56:18;1.13;;;0.80;;
10295;SDS011;5193;51.032;6.356;2022-10-16T02:58:43;1.33;;;0.97;;
10295;SDS011;5193;51.032;6.356;2022-10-16T03:01:09;1.07;;;0.80;;
10295;SDS011;5193;51.032;6.356;2022-10-16T03:03:35;2.03;;;1.10;;
10295;SDS011;5193;51.032;6.356;2022-10-16T03:06:01;1.60;;;0.80;;
10295;SDS011;5193;51.032;6.356;2022-10-16T03:08:26;4.23;;;0.80;;
10295;SDS011;5193;51.032;6.356;2022-10-16T03:10:52;1.23;;;0.60;;
10295;SDS011;5193;51.032;6.356;2022-10-16T03:13:17;0.93;;;0.60;;
10295;SDS011;5193;51.032;6.356;2022-10-16T03:15:45;3.40;;;0.70;;
10295;SDS011;5193;51.032;6.356;2022-10-16T03:18:11;1.30;;;0.77;;
10295;SDS011;5193;51.032;6.356;2022-10-16T03:20:36;1.87;;;0.80;;
10295;SDS011;5193;51.032;6.356;2022-10-16T03:23:02;1.77;;;0.60;;
10295;SDS011;5193;51.032;6.356;2022-10-16T03:25:28;0.90;;;0.70;;
10295;SDS011;5193;51.032;6.356;2022-10-16T03:27:53;0.93;;;0.67;;
10295;SDS011;5193;51.032;6.356;2022-10-16T03:30:19;0.70;;;0.70;;
10295;SDS011;5193;51.032;6.356;2022-10-16T03:32:45;1.33;;;0.77;;
10295;SDS011;5193;51.032;6.356;2022-10-16T03:35:11;2.30;;;0.60;;
10295;SDS011;5193;51.032;6.356;2022-10-16T03:37:37;1.37;;;0.70;;
10295;SDS011;5193;51.032;6.356;2022-10-16T03:40:03;1.20;;;0.77;;
10295;SDS011;5193;51.032;6.356;2022-10-16T03:42:29;0.97;;;0.70;;
10295;SDS011;5193;51.032;6.356;2022-10-16T03:44:55;0.70;;;0.70;;
10295;SDS011;5193;51.032;6.356;2022-10-16T03:47:20;3.70;;;0.80;;
10295;SDS011;5193;51.032;6.356;2022-10-16T03:49:48;1.63;;;0.67;;
10295;SDS011;5193;51.032;6.356;2022-10-16T03:52:14;0.80;;;0.70;;
10295;SDS011;5193;51.032;6.356;2022-10-16T03:54:39;1.83;;;0.60;;
10295;SDS011;5193;51.032;6.356;2022-10-16T03:57:05;4.00;;;1.17;;
10295;SDS011;5193;51.032;6.356;2022-10-16T03:59:31;4.03;;;1.00;;
10295;SDS011;5193;51.032;6.356;2022-10-16T04:01:56;1.17;;;0.67;;
10295;SDS011;5193;51.032;6.356;2022-10-16T04:04:22;1.47;;;0.80;;
10295;SDS011;5193;51.032;6.356;2022-10-16T04:06:47;0.83;;;0.80;;
10295;SDS011;5193;51.032;6.356;2022-10-16T04:09:13;1.77;;;0.73;;
10295;SDS011;5193;51.032;6.356;2022-10-16T04:11:38;1.80;;;0.90;;
10295;SDS011;5193;51.032;6.356;2022-10-16T04:14:04;0.70;;;0.70;;
10295;SDS011;5193;51.032;6.356;2022-10-16T04:16:29;0.93;;;0.60;;
10295;SDS011;5193;51.032;6.356;2022-10-16T04:18:55;2.00;;;0.83;;
10295;SDS011;5193;51.032;6.356;2022-10-16T04:21:20;2.33;;;0.80;;
10295;SDS011;5193;51.032;6.356;2022-10-16T04:23:47;1.20;;;0.87;;
10295;SDS011;5193;51.032;6.356;2022-10-16T04:26:12;1.17;;;0.90;;
10295;SDS011;5193;51.032;6.356;2022-10-16T04:28:38;2.00;;;1.10;;
10295;SDS011;5193;51.032;6.356;2022-10-16T04:31:04;1.70;;;0.90;;
10295;SDS011;5193;51.032;6.356;2022-10-16T04:33:30;3.80;;;0.90;;
10295;SDS011;5193;51.032;6.356;2022-10-16T04:35:56;1.93;;;0.90;;
10295;SDS011;5193;51.032;6.356;2022-10-16T04:38:23;1.33;;;0.90;;
10295;SDS011;5193;51.032;6.356;2022-10-16T04:40:48;1.03;;;1.00;;
10295;SDS011;5193;51.032;6.356;2022-10-16T04:43:14;3.23;;;0.90;;
10295;SDS011;5193;51.032;6.356;2022-10-16T04:45:39;0.80;;;0.80;;
10295;SDS011;5193;51.032;6.356;2022-10-16T04:48:05;2.37;;;1.00;;
10295;SDS011;5193;51.032;6.356;2022-10-16T04:50:30;3.00;;;0.90;;
10295;SDS011;5193;51.032;6.356;2022-10-16T04:52:56;1.20;;;1.07;;
10295;SDS011;5193;51.032;6.356;2022-10-16T04:55:22;1.37;;;0.97;;
10295;SDS011;5193;51.032;6.356;2022-10-16T04:57:47;2.17;;;0.80;;
10295;SDS011;5193;51.032;6.356;2022-10-16T05:00:13;2.63;;;1.00;;
10295;SDS011;5193;51.032;6.356;2022-10-16T05:02:39;2.03;;;0.97;;
10295;SDS011;5193;51.032;6.356;2022-10-16T05:05:04;1.33;;;0.80;;
10295;SDS011;5193;51.032;6.356;2022-10-16T05:07:30;2.67;;;1.20;;
10295;SDS011;5193;51.032;6.356;2022-10-16T05:09:56;3.40;;;0.90;;
10295;SDS011;5193;51.032;6.356;2022-10-16T05:12:21;2.00;;;1.10;;
10295;SDS011;5193;51.032;6.356;2022-10-16T05:14:47;0.83;;;0.83;;
10295;SDS011;5193;51.032;6.356;2022-10-16T05:17:13;3.43;;;1.00;;
10295;SDS011;5193;51.032;6.356;2022-10-16T05:19:38;1.50;;;1.00;;
10295;SDS011;5193;51.032;6.356;2022-10-16T05:22:04;1.20;;;0.97;;
10295;SDS011;5193;51.032;6.356;2022-10-16T05:24:29;1.10;;;1.00;;
10295;SDS011;5193;51.032;6.356;2022-10-16T05:26:55;2.87;;;1.30;;
10295;SDS011;5193;51.032;6.356;2022-10-16T05:29:21;1.70;;;1.20;;
10295;SDS011;5193;51.032;6.356;2022-10-16T05:31:49;2.40;;;1.20;;
10295;SDS011;5193;51.032;6.356;2022-10-16T05:34:15;1.20;;;1.00;;
10295;SDS011;5193;51.032;6.356;2022-10-16T05:36:41;2.90;;;0.93;;
10295;SDS011;5193;51.032;6.356;2022-10-16T05:39:06;1.23;;;1.00;;
10295;SDS011;5193;51.032;6.356;2022-10-16T05:41:32;1.23;;;1.10;;
10295;SDS011;5193;51.032;6.356;2022-10-16T05:43:58;1.20;;;1.10;;
10295;SDS011;5193;51.032;6.356;2022-10-16T05:46:24;1.90;;;1.20;;
10295;SDS011;5193;51.032;6.356;2022-10-16T05:48:51;2.37;;;1.10;;
10295;SDS011;5193;51.032;6.356;2022-10-16T05:51:18;2.17;;;1.20;;
10295;SDS011;5193;51.032;6.356;2022-10-16T05:53:43;1.30;;;1.20;;
10295;SDS011;5193;51.032;6.356;2022-10-16T05:56:10;1.63;;;1.20;;
10295;SDS011;5193;51.032;6.356;2022-10-16T05:58:37;1.73;;;1.23;;
10295;SDS011;5193;51.032;6.356;2022-10-16T06:01:14;2.77;;;0.97;;
10295;SDS011;5193;51.032;6.356;2022-10-16T06:03:42;1.30;;;1.13;;
10295;SDS011;5193;51.032;6.356;2022-10-16T06:06:11;1.30;;;1.20;;
10295;SDS011;5193;51.032;6.356;2022-10-16T06:08:41;1.33;;;1.20;;
10295;SDS011;5193;51.032;6.356;2022-10-16T06:11:08;1.67;;;1.13;;
10295;SDS011;5193;51.032;6.356;2022-10-16T06:13:39;1.70;;;1.40;;
10295;SDS011;5193;51.032;6.356;2022-10-16T06:16:07;1.20;;;1.10;;
10295;SDS011;5193;51.032;6.356;2022-10-16T06:18:33;1.20;;;1.10;;
10295;SDS011;5193;51.032;6.356;2022-10-16T06:20:59;1.23;;;0.97;;
10295;SDS011;5193;51.032;6.356;2022-10-16T06:23:24;2.13;;;1.20;;
10295;SDS011;5193;51.032;6.356;2022-10-16T06:25:50;2.87;;;1.27;;
10295;SDS011;5193;51.032;6.356;2022-10-16T06:28:16;5.00;;;1.30;;
10295;SDS011;5193;51.032;6.356;2022-10-16T06:30:42;2.40;;;1.40;;
10295;SDS011;5193;51.032;6.356;2022-10-16T06:33:10;2.20;;;1.20;;
10295;SDS011;5193;51.032;6.356;2022-10-16T06:35:36;2.57;;;1.00;;
10295;SDS011;5193;51.032;6.356;2022-10-16T06:38:02;1.33;;;1.20;;
10295;SDS011;5193;51.032;6.356;2022-10-16T06:40:27;1.73;;;1.30;;
10295;SDS011;5193;51.032;6.356;2022-10-16T06:42:56;2.73;;;1.40;;
10295;SDS011;5193;51.032;6.356;2022-10-16T06:45:22;3.50;;;1.30;;
10295;SDS011;5193;51.032;6.356;2022-10-16T06:47:47;1.73;;;1.27;;
10295;SDS011;5193;51.032;6.356;2022-10-16T06:50:13;1.20;;;1.10;;
10295;SDS011;5193;51.032;6.356;2022-10-16T06:52:39;3.30;;;1.40;;
10295;SDS011;5193;51.032;6.356;2022-10-16T06:55:04;1.30;;;1.20;;
10295;SDS011;5193;51.032;6.356;2022-10-16T06:57:30;1.40;;;1.30;;
10295;SDS011;5193;51.032;6.356;2022-10-16T06:59:56;3.97;;;1.10;;
10295;SDS011;5193;51.032;6.356;2022-10-16T07:02:21;4.30;;;1.23;;
10295;SDS011;5193;51.032;6.356;2022-10-16T07:04:47;1.43;;;1.30;;
10295;SDS011;5193;51.032;6.356;2022-10-16T07:07:12;5.80;;;1.33;;
10295;SDS011;5193;51.032;6.356;2022-10-16T07:09:38;2.63;;;1.17;;
10295;SDS011;5193;51.032;6.356;2022-10-16T07:12:05;4.23;;;1.20;;
10295;SDS011;5193;51.032;6.356;2022-10-16T07:14:31;1.33;;;1.13;;
10295;SDS011;5193;51.032;6.356;2022-10-16T07:16:56;7.03;;;1.33;;
10295;SDS011;5193;51.032;6.356;2022-10-16T07:19:22;2.47;;;1.30;;
10295;SDS011;5193;51.032;6.356;2022-10-16T07:21:47;4.73;;;1.40;;
10295;SDS011;5193;51.032;6.356;2022-10-16T07:24:14;1.27;;;1.17;;
10295;SDS011;5193;51.032;6.356;2022-10-16T07:26:41;1.63;;;1.53;;
10295;SDS011;5193;51.032;6.356;2022-10-16T07:29:13;2.30;;;1.30;;
10295;SDS011;5193;51.032;6.356;2022-10-16T07:31:41;2.10;;;1.33;;
10295;SDS011;5193;51.032;6.356;2022-10-16T07:34:07;2.20;;;1.20;;
10295;SDS011;5193;51.032;6.356;2022-10-16T07:36:33;3.43;;;1.23;;
10295;SDS011;5193;51.032;6.356;2022-10-16T07:38:59;2.93;;;1.43;;
10295;SDS011;5193;51.032;6.356;2022-10-16T07:41:24;2.30;;;1.30;;
10295;SDS011;5193;51.032;6.356;2022-10-16T07:43:51;4.03;;;1.50;;
10295;SDS011;5193;51.032;6.356;2022-10-16T07:46:18;2.97;;;1.47;;
10295;SDS011;5193;51.032;6.356;2022-10-16T07:48:45;1.57;;;1.33;;
10295;SDS011;5193;51.032;6.356;2022-10-16T07:51:12;3.10;;;1.60;;
10295;SDS011;5193;51.032;6.356;2022-10-16T07:53:39;2.83;;;1.40;;
10295;SDS011;5193;51.032;6.356;2022-10-16T07:56:05;4.70;;;1.90;;
10295;SDS011;5193;51.032;6.356;2022-10-16T07:58:32;2.70;;;1.43;;
10295;SDS011;5193;51.032;6.356;2022-10-16T08:00:58;3.13;;;1.97;;
10295;SDS011;5193;51.032;6.356;2022-10-16T08:03:28;6.57;;;1.50;;
10295;SDS011;5193;51.032;6.356;2022-10-16T08:05:54;1.67;;;1.50;;
10295;SDS011;5193;51.032;6.356;2022-10-16T08:08:22;2.17;;;1.30;;
10295;SDS011;5193;51.032;6.356;2022-10-16T08:10:48;1.97;;;1.10;;
10295;SDS011;5193;51.032;6.356;2022-10-16T08:13:13;1.93;;;1.23;;
10295;SDS011;5193;51.032;6.356;2022-10-16T08:15:40;3.97;;;1.27;;
10295;SDS011;5193;51.032;6.356;2022-10-16T08:18:09;6.03;;;2.60;;
10295;SDS011;5193;51.032;6.356;2022-10-16T08:20:35;2.90;;;1.37;;
10295;SDS011;5193;51.032;6.356;2022-10-16T08:23:01;2.60;;;1.20;;
10295;SDS011;5193;51.032;6.356;2022-10-16T08:25:28;3.80;;;1.27;;
10295;SDS011;5193;51.032;6.356;2022-10-16T08:27:54;2.83;;;1.00;;
10295;SDS011;5193;51.032;6.356;2022-10-16T08:30:20;2.57;;;0.80;;
10295;SDS011;5193;51.032;6.356;2022-10-16T08:32:48;2.53;;;1.13;;
10295;SDS011;5193;51.032;6.356;2022-10-16T08:35:15;2.50;;;1.07;;
10295;SDS011;5193;51.032;6.356;2022-10-16T08:37:42;1.93;;;1.03;;
10295;SDS011;5193;51.032;6.356;2022-10-16T08:40:27;2.93;;;1.10;;
10295;SDS011;5193;51.032;6.356;2022-10-16T08:45:59;1.73;;;1.20;;
10295;SDS011;5193;51.032;6.356;2022-10-16T08:48:43;1.30;;;0.83;;
10295;SDS011;5193;51.032;6.356;2022-10-16T08:51:24;2.17;;;0.90;;
10295;SDS011;5193;51.032;6.356;2022-10-16T08:53:57;1.70;;;1.00;;
10295;SDS011;5193;51.032;6.356;2022-10-16T08:57:09;2.03;;;0.90;;
10295;SDS011;5193;51.032;6.356;2022-10-16T08:59:41;0.97;;;0.90;;
10295;SDS011;5193;51.032;6.356;2022-10-16T09:02:28;4.97;;;0.93;;
10295;SDS011;5193;51.032;6.356;2022-10-16T09:05:02;2.40;;;1.10;;
10295;SDS011;5193;51.032;6.356;2022-10-16T09:08:01;2.73;;;0.80;;
10295;SDS011;5193;51.032;6.356;2022-10-16T09:10:38;2.77;;;0.87;;
10295;SDS011;5193;51.032;6.356;2022-10-16T09:19:00;3.23;;;0.90;;
10295;SDS011;5193;51.032;6.356;2022-10-16T09:21:41;4.70;;;0.90;;
10295;SDS011;5193;51.032;6.356;2022-10-16T09:24:10;1.60;;;0.70;;
10295;SDS011;5193;51.032;6.356;2022-10-16T09:26:41;1.43;;;0.57;;
10295;SDS011;5193;51.032;6.356;2022-10-16T09:29:11;1.97;;;0.73;;
10295;SDS011;5193;51.032;6.356;2022-10-16T09:31:42;2.07;;;0.53;;
10295;SDS011;5193;51.032;6.356;2022-10-16T09:34:14;1.17;;;0.53;;
10295;SDS011;5193;51.032;6.356;2022-10-16T09:36:48;0.97;;;0.60;;
10295;SDS011;5193;51.032;6.356;2022-10-16T09:39:14;3.60;;;0.60;;
10295;SDS011;5193;51.032;6.356;2022-10-16T09:41:40;2.53;;;0.83;;
10295;SDS011;5193;51.032;6.356;2022-10-16T09:44:42;1.70;;;0.70;;
10295;SDS011;5193;51.032;6.356;2022-10-16T09:47:05;2.20;;;0.63;;
10295;SDS011;5193;51.032;6.356;2022-10-16T09:49:37;6.20;;;1.00;;
10295;SDS011;5193;51.032;6.356;2022-10-16T09:52:10;2.67;;;0.97;;
10295;SDS011;5193;51.032;6.356;2022-10-16T09:54:38;0.63;;;0.50;;
10295;SDS011;5193;51.032;6.356;2022-10-16T09:57:14;2.00;;;0.60;;
10295;SDS011;5193;51.032;6.356;2022-10-16T09:59:47;0.90;;;0.53;;
10295;SDS011;5193;51.032;6.356;2022-10-16T10:02:15;0.90;;;0.53;;
10295;SDS011;5193;51.032;6.356;2022-10-16T10:04:52;4.47;;;0.80;;
10295;SDS011;5193;51.032;6.356;2022-10-16T10:07:21;3.10;;;0.80;;
10295;SDS011;5193;51.032;6.356;2022-10-16T10:09:53;3.93;;;0.83;;
10295;SDS011;5193;51.032;6.356;2022-10-16T10:12:22;2.87;;;0.80;;
10295;SDS011;5193;51.032;6.356;2022-10-16T10:14:53;2.57;;;0.60;;
10295;SDS011;5193;51.032;6.356;2022-10-16T10:17:22;2.90;;;0.67;;
10295;SDS011;5193;51.032;6.356;2022-10-16T10:19:59;3.03;;;0.83;;
10295;SDS011;5193;51.032;6.356;2022-10-16T10:22:45;7.50;;;0.90;;
10295;SDS011;5193;51.032;6.356;2022-10-16T10:27:42;4.20;;;1.07;;
10295;SDS011;5193;51.032;6.356;2022-10-16T10:30:24;4.10;;;0.60;;
10295;SDS011;5193;51.032;6.356;2022-10-16T10:33:09;3.13;;;0.90;;
10295;SDS011;5193;51.032;6.356;2022-10-16T10:35:58;4.37;;;0.90;;
10295;SDS011;5193;51.032;6.356;2022-10-16T10:43:59;0.93;;;0.50;;
10295;SDS011;5193;51.032;6.356;2022-10-16T10:49:22;2.63;;;0.73;;
10295;SDS011;5193;51.032;6.356;2022-10-16T10:53:05;1.37;;;0.77;;
10295;SDS011;5193;51.032;6.356;2022-10-16T10:58:08;3.33;;;0.80;;
10295;SDS011;5193;51.032;6.356;2022-10-16T11:00:47;1.37;;;0.60;;
10295;SDS011;5193;51.032;6.356;2022-10-16T11:06:18;3.17;;;0.67;;
10295;SDS011;5193;51.032;6.356;2022-10-16T11:08:53;2.73;;;0.77;;
10295;SDS011;5193;51.032;6.356;2022-10-16T11:11:46;4.47;;;0.60;;
10295;SDS011;5193;51.032;6.356;2022-10-16T11:14:20;3.30;;;0.70;;
10295;SDS011;5193;51.032;6.356;2022-10-16T11:19:46;1.23;;;0.67;;
10295;SDS011;5193;51.032;6.356;2022-10-16T11:22:19;1.13;;;0.50;;
10295;SDS011;5193;51.032;6.356;2022-10-16T11:27:37;2.57;;;0.60;;
10295;SDS011;5193;51.032;6.356;2022-10-16T11:30:08;2.47;;;0.63;;
10295;SDS011;5193;51.032;6.356;2022-10-16T11:38:19;4.27;;;0.70;;
10295;SDS011;5193;51.032;6.356;2022-10-16T11:40:56;2.77;;;0.77;;
10295;SDS011;5193;51.032;6.356;2022-10-16T11:43:41;2.27;;;0.63;;
10295;SDS011;5193;51.032;6.356;2022-10-16T11:46:19;1.53;;;0.77;;
10295;SDS011;5193;51.032;6.356;2022-10-16T11:48:51;2.13;;;0.50;;
10295;SDS011;5193;51.032;6.356;2022-10-16T11:51:33;2.43;;;0.90;;
10295;SDS011;5193;51.032;6.356;2022-10-16T11:54:08;1.67;;;0.53;;
10295;SDS011;5193;51.032;6.356;2022-10-16T11:56:46;1.50;;;0.70;;
10295;SDS011;5193;51.032;6.356;2022-10-16T11:59:21;5.40;;;0.90;;
10295;SDS011;5193;51.032;6.356;2022-10-16T12:02:03;2.47;;;0.70;;
10295;SDS011;5193;51.032;6.356;2022-10-16T12:04:45;2.97;;;0.70;;
10295;SDS011;5193;51.032;6.356;2022-10-16T12:07:24;1.83;;;0.50;;
10295;SDS011;5193;51.032;6.356;2022-10-16T12:09:57;1.07;;;0.47;;
10295;SDS011;5193;51.032;6.356;2022-10-16T12:15:03;1.50;;;0.70;;
10295;SDS011;5193;51.032;6.356;2022-10-16T12:17:44;0.97;;;0.43;;
10295;SDS011;5193;51.032;6.356;2022-10-16T12:22:42;1.50;;;0.50;;
10295;SDS011;5193;51.032;6.356;2022-10-16T12:25:19;1.03;;;0.40;;
10295;SDS011;5193;51.032;6.356;2022-10-16T12:28:00;2.50;;;0.47;;
10295;SDS011;5193;51.032;6.356;2022-10-16T12:30:30;1.27;;;0.77;;
10295;SDS011;5193;51.032;6.356;2022-10-16T12:32:59;0.57;;;0.40;;
10295;SDS011;5193;51.032;6.356;2022-10-16T12:35:31;0.73;;;0.60;;
10295;SDS011;5193;51.032;6.356;2022-10-16T12:38:28;1.43;;;0.60;;
10295;SDS011;5193;51.032;6.356;2022-10-16T12:41:04;2.80;;;0.70;;
10295;SDS011;5193;51.032;6.356;2022-10-16T12:43:43;3.43;;;0.70;;
10295;SDS011;5193;51.032;6.356;2022-10-16T12:48:39;1.40;;;0.43;;
10295;SDS011;5193;51.032;6.356;2022-10-16T13:03:16;3.70;;;0.70;;
10295;SDS011;5193;51.032;6.356;2022-10-16T13:13:37;1.90;;;0.70;;
10295;SDS011;5193;51.032;6.356;2022-10-16T13:21:50;1.40;;;0.50;;
10295;SDS011;5193;51.032;6.356;2022-10-16T13:25:01;1.77;;;0.50;;
10295;SDS011;5193;51.032;6.356;2022-10-16T13:28:00;0.93;;;0.40;;
10295;SDS011;5193;51.032;6.356;2022-10-16T13:30:28;1.53;;;0.53;;
10295;SDS011;5193;51.032;6.356;2022-10-16T13:33:02;1.70;;;0.50;;
10295;SDS011;5193;51.032;6.356;2022-10-16T13:35:32;0.70;;;0.50;;
10295;SDS011;5193;51.032;6.356;2022-10-16T13:40:54;1.50;;;0.50;;
10295;SDS011;5193;51.032;6.356;2022-10-16T13:43:26;1.50;;;0.43;;
10295;SDS011;5193;51.032;6.356;2022-10-16T13:46:00;2.03;;;0.53;;
10295;SDS011;5193;51.032;6.356;2022-10-16T13:48:31;0.67;;;0.30;;
10295;SDS011;5193;51.032;6.356;2022-10-16T13:50:58;1.60;;;0.50;;
10295;SDS011;5193;51.032;6.356;2022-10-16T13:53:31;0.83;;;0.40;;
10295;SDS011;5193;51.032;6.356;2022-10-16T13:55:58;1.60;;;0.50;;
10295;SDS011;5193;51.032;6.356;2022-10-16T13:58:25;1.43;;;0.50;;
10295;SDS011;5193;51.032;6.356;2022-10-16T14:03:28;0.80;;;0.57;;
10295;SDS011;5193;51.032;6.356;2022-10-16T14:05:55;0.30;;;0.30;;
10295;SDS011;5193;51.032;6.356;2022-10-16T14:08:26;0.60;;;0.40;;
10295;SDS011;5193;51.032;6.356;2022-10-16T14:10:55;0.40;;;0.30;;
10295;SDS011;5193;51.032;6.356;2022-10-16T14:13:34;1.17;;;0.50;;
10295;SDS011;5193;51.032;6.356;2022-10-16T14:16:15;0.77;;;0.50;;
10295;SDS011;5193;51.032;6.356;2022-10-16T14:18:45;1.07;;;0.60;;
10295;SDS011;5193;51.032;6.356;2022-10-16T14:21:16;1.47;;;0.40;;
10295;SDS011;5193;51.032;6.356;2022-10-16T14:23:43;1.67;;;0.50;;
10295;SDS011;5193;51.032;6.356;2022-10-16T14:28:35;1.90;;;0.40;;
10295;SDS011;5193;51.032;6.356;2022-10-16T14:33:56;1.50;;;0.60;;
10295;SDS011;5193;51.032;6.356;2022-10-16T14:36:22;0.73;;;0.37;;
10295;SDS011;5193;51.032;6.356;2022-10-16T14:39:03;1.10;;;0.50;;
10295;SDS011;5193;51.032;6.356;2022-10-16T14:41:43;1.03;;;0.70;;
10295;SDS011;5193;51.032;6.356;2022-10-16T14:44:11;1.40;;;0.73;;
10295;SDS011;5193;51.032;6.356;2022-10-16T14:46:38;2.23;;;1.30;;
10295;SDS011;5193;51.032;6.356;2022-10-16T14:51:35;2.80;;;1.27;;
10295;SDS011;5193;51.032;6.356;2022-10-16T14:54:09;2.23;;;0.90;;
10295;SDS011;5193;51.032;6.356;2022-10-16T14:59:17;3.93;;;1.20;;
10295;SDS011;5193;51.032;6.356;2022-10-16T15:01:47;3.50;;;3.20;;
10295;SDS011;5193;51.032;6.356;2022-10-16T15:04:12;3.10;;;1.47;;
10295;SDS011;5193;51.032;6.356;2022-10-16T15:06:39;3.03;;;1.00;;
10295;SDS011;5193;51.032;6.356;2022-10-16T15:09:05;1.40;;;1.07;;
10295;SDS011;5193;51.032;6.356;2022-10-16T15:11:31;1.70;;;1.40;;
10295;SDS011;5193;51.032;6.356;2022-10-16T15:13:57;1.77;;;0.70;;
10295;SDS011;5193;51.032;6.356;2022-10-16T15:16:23;1.20;;;0.60;;
10295;SDS011;5193;51.032;6.356;2022-10-16T15:18:49;1.77;;;0.70;;
10295;SDS011;5193;51.032;6.356;2022-10-16T15:23:51;1.07;;;0.40;;
10295;SDS011;5193;51.032;6.356;2022-10-16T15:26:17;0.50;;;0.50;;
10295;SDS011;5193;51.032;6.356;2022-10-16T15:28:43;0.97;;;0.60;;
10295;SDS011;5193;51.032;6.356;2022-10-16T15:31:08;1.50;;;0.70;;
10295;SDS011;5193;51.032;6.356;2022-10-16T15:33:34;1.43;;;1.00;;
10295;SDS011;5193;51.032;6.356;2022-10-16T15:36:00;3.00;;;1.03;;
10295;SDS011;5193;51.032;6.356;2022-10-16T15:38:27;8.03;;;1.10;;
10295;SDS011;5193;51.032;6.356;2022-10-16T15:40:54;2.03;;;0.80;;
10295;SDS011;5193;51.032;6.356;2022-10-16T15:43:20;1.73;;;0.90;;
10295;SDS011;5193;51.032;6.356;2022-10-16T15:45:57;1.80;;;0.57;;
10295;SDS011;5193;51.032;6.356;2022-10-16T15:48:26;1.63;;;0.73;;
10295;SDS011;5193;51.032;6.356;2022-10-16T15:50:51;1.37;;;0.70;;
10295;SDS011;5193;51.032;6.356;2022-10-16T15:53:17;0.90;;;0.50;;
10295;SDS011;5193;51.032;6.356;2022-10-16T15:55:42;0.93;;;0.40;;
10295;SDS011;5193;51.032;6.356;2022-10-16T15:58:08;0.97;;;0.47;;
10295;SDS011;5193;51.032;6.356;2022-10-16T16:00:34;0.60;;;0.57;;
10295;SDS011;5193;51.032;6.356;2022-10-16T16:02:59;0.93;;;0.53;;
10295;SDS011;5193;51.032;6.356;2022-10-16T16:05:25;2.40;;;0.60;;
10295;SDS011;5193;51.032;6.356;2022-10-16T16:07:52;1.77;;;0.50;;
10295;SDS011;5193;51.032;6.356;2022-10-16T16:10:18;1.53;;;0.60;;
10295;SDS011;5193;51.032;6.356;2022-10-16T16:12:46;1.10;;;0.70;;
10295;SDS011;5193;51.032;6.356;2022-10-16T16:15:16;2.03;;;0.50;;
10295;SDS011;5193;51.032;6.356;2022-10-16T16:17:42;2.83;;;0.60;;
10295;SDS011;5193;51.032;6.356;2022-10-16T16:20:09;1.80;;;0.93;;
10295;SDS011;5193;51.032;6.356;2022-10-16T16:22:35;0.43;;;0.43;;
10295;SDS011;5193;51.032;6.356;2022-10-16T16:25:01;4.50;;;0.80;;
10295;SDS011;5193;51.032;6.356;2022-10-16T16:27:26;1.57;;;0.60;;
10295;SDS011;5193;51.032;6.356;2022-10-16T16:29:54;1.60;;;0.70;;
10295;SDS011;5193;51.032;6.356;2022-10-16T16:32:20;1.40;;;0.87;;
10295;SDS011;5193;51.032;6.356;2022-10-16T16:34:45;4.47;;;1.40;;
10295;SDS011;5193;51.032;6.356;2022-10-16T16:37:11;5.87;;;2.40;;
10295;SDS011;5193;51.032;6.356;2022-10-16T16:39:37;6.13;;;3.70;;
10295;SDS011;5193;51.032;6.356;2022-10-16T16:42:02;6.67;;;4.20;;
10295;SDS011;5193;51.032;6.356;2022-10-16T16:44:29;7.23;;;4.03;;
10295;SDS011;5193;51.032;6.356;2022-10-16T16:46:55;4.13;;;1.70;;
10295;SDS011;5193;51.032;6.356;2022-10-16T16:49:20;2.80;;;1.33;;
10295;SDS011;5193;51.032;6.356;2022-10-16T16:51:46;2.53;;;0.97;;
10295;SDS011;5193;51.032;6.356;2022-10-16T16:54:12;1.77;;;0.80;;
10295;SDS011;5193;51.032;6.356;2022-10-16T16:56:39;1.43;;;1.00;;
10295;SDS011;5193;51.032;6.356;2022-10-16T16:59:10;1.70;;;0.87;;
10295;SDS011;5193;51.032;6.356;2022-10-16T17:01:41;2.00;;;0.90;;
10295;SDS011;5193;51.032;6.356;2022-10-16T17:04:07;1.53;;;0.93;;
10295;SDS011;5193;51.032;6.356;2022-10-16T17:06:33;1.63;;;1.07;;
10295;SDS011;5193;51.032;6.356;2022-10-16T17:09:00;3.20;;;1.40;;
10295;SDS011;5193;51.032;6.356;2022-10-16T17:11:27;4.77;;;1.80;;